sensor_id;sensor_type;location;lat;lon;timestamp;P1;durP1;ratioP1;P2;durP2;ratioP2
17925;SDS011;9088;55.674;13.354;2023-09-07T00:00:05;0.50;;;0.50;;
17925;SDS011;9088;55.674;13.354;2023-09-07T00:02:35;0.50;;;0.50;;
17925;SDS011;9088;55.674;13.354;2023-09-07T00:05:04;0.50;;;0.50;;
17925;SDS011;9088;55.674;13.354;2023-09-07T00:07:32;0.40;;;0.40;;
17925;SDS011;9088;55.674;13.354;2023-09-07T00:09:59;0.47;;;0.47;;
17925;SDS011;9088;55.674;13.354;2023-09-07T00:12:27;0.40;;;0.40;;
17925;SDS011;9088;55.674;13.354;2023-09-07T00:14:54;0.40;;;0.40;;
17925;SDS011;9088;55.674;13.354;2023-09-07T00:17:21;0.50;;;0.50;;
17925;SDS011;9088;55.674;13.354;2023-09-07T00:19:48;0.50;;;0.50;;
17925;SDS011;9088;55.674;13.354;2023-09-07T00:22:16;0.40;;;0.40;;
17925;SDS011;9088;55.674;13.354;2023-09-07T00:24:43;0.40;;;0.40;;
17925;SDS011;9088;55.674;13.354;2023-09-07T00:27:10;0.40;;;0.40;;
17925;SDS011;9088;55.674;13.354;2023-09-07T00:29:39;0.40;;;0.40;;
17925;SDS011;9088;55.674;13.354;2023-09-07T00:32:06;0.40;;;0.40;;
17925;SDS011;9088;55.674;13.354;2023-09-07T00:34:33;0.40;;;0.40;;
17925;SDS011;9088;55.674;13.354;2023-09-07T00:37:00;0.40;;;0.40;;
17925;SDS011;9088;55.674;13.354;2023-09-07T00:39:27;0.40;;;0.40;;
17925;SDS011;9088;55.674;13.354;2023-09-07T00:41:54;0.40;;;0.40;;
17925;SDS011;9088;55.674;13.354;2023-09-07T00:44:21;0.40;;;0.40;;
17925;SDS011;9088;55.674;13.354;2023-09-07T00:46:50;0.40;;;0.40;;
17925;SDS011;9088;55.674;13.354;2023-09-07T00:49:17;0.40;;;0.40;;
17925;SDS011;9088;55.674;13.354;2023-09-07T00:51:44;0.40;;;0.40;;
17925;SDS011;9088;55.674;13.354;2023-09-07T00:54:11;0.40;;;0.40;;
17925;SDS011;9088;55.674;13.354;2023-09-07T00:56:38;0.40;;;0.40;;
17925;SDS011;9088;55.674;13.354;2023-09-07T00:59:05;0.40;;;0.40;;
17925;SDS011;9088;55.674;13.354;2023-09-07T01:01:34;0.43;;;0.43;;
17925;SDS011;9088;55.674;13.354;2023-09-07T01:04:03;0.40;;;0.40;;
17925;SDS011;9088;55.674;13.354;2023-09-07T01:06:32;0.40;;;0.40;;
17925;SDS011;9088;55.674;13.354;2023-09-07T01:09:03;0.50;;;0.50;;
17925;SDS011;9088;55.674;13.354;2023-09-07T01:11:35;0.40;;;0.40;;
17925;SDS011;9088;55.674;13.354;2023-09-07T01:14:03;0.40;;;0.40;;
17925;SDS011;9088;55.674;13.354;2023-09-07T01:16:30;0.40;;;0.40;;
17925;SDS011;9088;55.674;13.354;2023-09-07T01:18:58;0.43;;;0.43;;
17925;SDS011;9088;55.674;13.354;2023-09-07T01:21:27;0.50;;;0.50;;
17925;SDS011;9088;55.674;13.354;2023-09-07T01:23:56;0.50;;;0.50;;
17925;SDS011;9088;55.674;13.354;2023-09-07T01:26:23;0.50;;;0.50;;
17925;SDS011;9088;55.674;13.354;2023-09-07T01:28:50;0.40;;;0.40;;
17925;SDS011;9088;55.674;13.354;2023-09-07T01:31:18;0.50;;;0.50;;
17925;SDS011;9088;55.674;13.354;2023-09-07T01:33:45;0.50;;;0.50;;
17925;SDS011;9088;55.674;13.354;2023-09-07T01:36:12;0.50;;;0.50;;
17925;SDS011;9088;55.674;13.354;2023-09-07T01:38:39;0.50;;;0.50;;
17925;SDS011;9088;55.674;13.354;2023-09-07T01:41:08;0.50;;;0.50;;
17925;SDS011;9088;55.674;13.354;2023-09-07T01:43:35;0.43;;;0.43;;
17925;SDS011;9088;55.674;13.354;2023-09-07T01:46:02;0.40;;;0.40;;
17925;SDS011;9088;55.674;13.354;2023-09-07T01:48:29;0.50;;;0.50;;
17925;SDS011;9088;55.674;13.354;2023-09-07T01:50:56;0.50;;;0.50;;
17925;SDS011;9088;55.674;13.354;2023-09-07T01:53:23;0.50;;;0.50;;
17925;SDS011;9088;55.674;13.354;2023-09-07T01:55:50;0.50;;;0.50;;
17925;SDS011;9088;55.674;13.354;2023-09-07T01:58:18;0.50;;;0.50;;
17925;SDS011;9088;55.674;13.354;2023-09-07T02:00:45;0.50;;;0.50;;
17925;SDS011;9088;55.674;13.354;2023-09-07T02:03:12;0.50;;;0.50;;
17925;SDS011;9088;55.674;13.354;2023-09-07T02:05:39;0.50;;;0.50;;
17925;SDS011;9088;55.674;13.354;2023-09-07T02:08:06;0.50;;;0.50;;
17925;SDS011;9088;55.674;13.354;2023-09-07T02:10:33;0.50;;;0.50;;
17925;SDS011;9088;55.674;13.354;2023-09-07T02:13:00;0.50;;;0.50;;
17925;SDS011;9088;55.674;13.354;2023-09-07T02:15:30;0.60;;;0.60;;
17925;SDS011;9088;55.674;13.354;2023-09-07T02:17:57;0.60;;;0.60;;
17925;SDS011;9088;55.674;13.354;2023-09-07T02:20:24;0.50;;;0.50;;
17925;SDS011;9088;55.674;13.354;2023-09-07T02:22:51;0.60;;;0.60;;
17925;SDS011;9088;55.674;13.354;2023-09-07T02:25:18;0.50;;;0.50;;
17925;SDS011;9088;55.674;13.354;2023-09-07T02:27:45;0.50;;;0.50;;
17925;SDS011;9088;55.674;13.354;2023-09-07T02:30:12;0.50;;;0.50;;
17925;SDS011;9088;55.674;13.354;2023-09-07T02:32:42;0.50;;;0.50;;
17925;SDS011;9088;55.674;13.354;2023-09-07T02:35:09;0.50;;;0.50;;
17925;SDS011;9088;55.674;13.354;2023-09-07T02:37:36;0.50;;;0.50;;
17925;SDS011;9088;55.674;13.354;2023-09-07T02:40:03;0.50;;;0.50;;
17925;SDS011;9088;55.674;13.354;2023-09-07T02:42:33;0.50;;;0.50;;
17925;SDS011;9088;55.674;13.354;2023-09-07T02:45:00;0.50;;;0.50;;
17925;SDS011;9088;55.674;13.354;2023-09-07T02:47:27;0.53;;;0.53;;
17925;SDS011;9088;55.674;13.354;2023-09-07T02:49:55;0.50;;;0.50;;
17925;SDS011;9088;55.674;13.354;2023-09-07T02:52:22;0.50;;;0.50;;
17925;SDS011;9088;55.674;13.354;2023-09-07T02:54:49;0.60;;;0.60;;
17925;SDS011;9088;55.674;13.354;2023-09-07T02:57:16;0.50;;;0.50;;
17925;SDS011;9088;55.674;13.354;2023-09-07T02:59:43;0.60;;;0.60;;
17925;SDS011;9088;55.674;13.354;2023-09-07T03:02:10;0.53;;;0.53;;
17925;SDS011;9088;55.674;13.354;2023-09-07T03:04:37;0.60;;;0.60;;
17925;SDS011;9088;55.674;13.354;2023-09-07T03:07:06;0.60;;;0.60;;
17925;SDS011;9088;55.674;13.354;2023-09-07T03:09:34;0.60;;;0.60;;
17925;SDS011;9088;55.674;13.354;2023-09-07T03:12:01;0.60;;;0.60;;
17925;SDS011;9088;55.674;13.354;2023-09-07T03:14:28;0.60;;;0.60;;
17925;SDS011;9088;55.674;13.354;2023-09-07T03:16:55;0.50;;;0.50;;
17925;SDS011;9088;55.674;13.354;2023-09-07T03:19:22;0.50;;;0.50;;
17925;SDS011;9088;55.674;13.354;2023-09-07T03:21:52;0.50;;;0.50;;
17925;SDS011;9088;55.674;13.354;2023-09-07T03:24:21;0.50;;;0.50;;
17925;SDS011;9088;55.674;13.354;2023-09-07T03:26:48;0.50;;;0.50;;
17925;SDS011;9088;55.674;13.354;2023-09-07T03:29:18;0.50;;;0.50;;
17925;SDS011;9088;55.674;13.354;2023-09-07T03:31:45;0.50;;;0.50;;
17925;SDS011;9088;55.674;13.354;2023-09-07T03:34:12;0.50;;;0.50;;
17925;SDS011;9088;55.674;13.354;2023-09-07T03:36:39;0.40;;;0.40;;
17925;SDS011;9088;55.674;13.354;2023-09-07T03:39:06;0.50;;;0.50;;
17925;SDS011;9088;55.674;13.354;2023-09-07T03:41:36;0.40;;;0.40;;
17925;SDS011;9088;55.674;13.354;2023-09-07T03:44:03;0.50;;;0.50;;
17925;SDS011;9088;55.674;13.354;2023-09-07T03:46:30;0.50;;;0.50;;
17925;SDS011;9088;55.674;13.354;2023-09-07T03:48:57;0.50;;;0.50;;
17925;SDS011;9088;55.674;13.354;2023-09-07T03:51:27;0.50;;;0.50;;
17925;SDS011;9088;55.674;13.354;2023-09-07T03:53:54;0.50;;;0.50;;
17925;SDS011;9088;55.674;13.354;2023-09-07T03:56:21;0.50;;;0.50;;
17925;SDS011;9088;55.674;13.354;2023-09-07T03:58:49;0.50;;;0.50;;
17925;SDS011;9088;55.674;13.354;2023-09-07T04:01:16;0.60;;;0.60;;
17925;SDS011;9088;55.674;13.354;2023-09-07T04:03:43;0.50;;;0.50;;
17925;SDS011;9088;55.674;13.354;2023-09-07T04:06:10;0.60;;;0.60;;
17925;SDS011;9088;55.674;13.354;2023-09-07T04:08:37;0.50;;;0.50;;
17925;SDS011;9088;55.674;13.354;2023-09-07T04:11:05;0.50;;;0.50;;
17925;SDS011;9088;55.674;13.354;2023-09-07T04:13:32;0.50;;;0.50;;
17925;SDS011;9088;55.674;13.354;2023-09-07T04:16:00;0.50;;;0.50;;
17925;SDS011;9088;55.674;13.354;2023-09-07T04:18:27;0.60;;;0.60;;
17925;SDS011;9088;55.674;13.354;2023-09-07T04:21:03;0.50;;;0.50;;
17925;SDS011;9088;55.674;13.354;2023-09-07T04:23:30;0.60;;;0.60;;
17925;SDS011;9088;55.674;13.354;2023-09-07T04:26:03;0.50;;;0.50;;
17925;SDS011;9088;55.674;13.354;2023-09-07T04:28:30;0.40;;;0.40;;
17925;SDS011;9088;55.674;13.354;2023-09-07T04:30:57;0.50;;;0.50;;
17925;SDS011;9088;55.674;13.354;2023-09-07T04:33:25;0.50;;;0.50;;
17925;SDS011;9088;55.674;13.354;2023-09-07T04:35:52;0.50;;;0.50;;
17925;SDS011;9088;55.674;13.354;2023-09-07T04:38:19;0.40;;;0.40;;
17925;SDS011;9088;55.674;13.354;2023-09-07T04:40:46;0.40;;;0.40;;
17925;SDS011;9088;55.674;13.354;2023-09-07T04:43:16;0.90;;;0.90;;
17925;SDS011;9088;55.674;13.354;2023-09-07T04:45:45;0.90;;;0.90;;
17925;SDS011;9088;55.674;13.354;2023-09-07T04:48:12;0.80;;;0.80;;
17925;SDS011;9088;55.674;13.354;2023-09-07T04:50:41;1.00;;;1.00;;
17925;SDS011;9088;55.674;13.354;2023-09-07T04:53:08;1.00;;;1.00;;
17925;SDS011;9088;55.674;13.354;2023-09-07T04:55:37;0.97;;;0.97;;
17925;SDS011;9088;55.674;13.354;2023-09-07T04:58:05;0.90;;;0.90;;
17925;SDS011;9088;55.674;13.354;2023-09-07T05:00:32;0.90;;;0.90;;
17925;SDS011;9088;55.674;13.354;2023-09-07T05:02:59;1.20;;;1.20;;
17925;SDS011;9088;55.674;13.354;2023-09-07T05:05:27;1.20;;;1.20;;
17925;SDS011;9088;55.674;13.354;2023-09-07T05:07:55;1.37;;;1.37;;
17925;SDS011;9088;55.674;13.354;2023-09-07T05:10:22;1.48;;;1.48;;
17925;SDS011;9088;55.674;13.354;2023-09-07T05:12:50;1.30;;;1.30;;
17925;SDS011;9088;55.674;13.354;2023-09-07T05:15:20;1.20;;;1.20;;
17925;SDS011;9088;55.674;13.354;2023-09-07T05:17:47;1.40;;;1.40;;
17925;SDS011;9088;55.674;13.354;2023-09-07T05:20:14;1.30;;;1.30;;
17925;SDS011;9088;55.674;13.354;2023-09-07T05:22:41;1.27;;;1.27;;
17925;SDS011;9088;55.674;13.354;2023-09-07T05:25:09;1.20;;;1.20;;
17925;SDS011;9088;55.674;13.354;2023-09-07T05:27:37;0.90;;;0.90;;
17925;SDS011;9088;55.674;13.354;2023-09-07T05:30:04;1.20;;;1.20;;
17925;SDS011;9088;55.674;13.354;2023-09-07T05:32:32;1.00;;;1.00;;
17925;SDS011;9088;55.674;13.354;2023-09-07T05:35:00;1.30;;;1.30;;
17925;SDS011;9088;55.674;13.354;2023-09-07T05:37:27;1.33;;;1.33;;
17925;SDS011;9088;55.674;13.354;2023-09-07T05:39:54;1.00;;;1.00;;
17925;SDS011;9088;55.674;13.354;2023-09-07T05:42:22;1.40;;;1.40;;
17925;SDS011;9088;55.674;13.354;2023-09-07T05:44:51;0.80;;;0.80;;
17925;SDS011;9088;55.674;13.354;2023-09-07T05:47:18;0.70;;;0.70;;
17925;SDS011;9088;55.674;13.354;2023-09-07T05:49:45;0.80;;;0.80;;
17925;SDS011;9088;55.674;13.354;2023-09-07T05:52:12;0.90;;;0.90;;
17925;SDS011;9088;55.674;13.354;2023-09-07T05:54:39;0.90;;;0.90;;
17925;SDS011;9088;55.674;13.354;2023-09-07T05:57:06;0.80;;;0.80;;
17925;SDS011;9088;55.674;13.354;2023-09-07T05:59:34;0.90;;;0.90;;
17925;SDS011;9088;55.674;13.354;2023-09-07T06:02:04;0.70;;;0.70;;
17925;SDS011;9088;55.674;13.354;2023-09-07T06:04:31;0.80;;;0.80;;
17925;SDS011;9088;55.674;13.354;2023-09-07T06:07:00;0.70;;;0.70;;
17925;SDS011;9088;55.674;13.354;2023-09-07T06:09:27;0.70;;;0.70;;
17925;SDS011;9088;55.674;13.354;2023-09-07T06:11:54;0.77;;;0.77;;
17925;SDS011;9088;55.674;13.354;2023-09-07T06:14:21;0.80;;;0.80;;
17925;SDS011;9088;55.674;13.354;2023-09-07T06:16:50;0.80;;;0.80;;
17925;SDS011;9088;55.674;13.354;2023-09-07T06:19:17;0.73;;;0.73;;
17925;SDS011;9088;55.674;13.354;2023-09-07T06:21:45;0.70;;;0.70;;
17925;SDS011;9088;55.674;13.354;2023-09-07T06:24:12;0.70;;;0.70;;
17925;SDS011;9088;55.674;13.354;2023-09-07T06:26:39;0.80;;;0.80;;
17925;SDS011;9088;55.674;13.354;2023-09-07T06:29:07;0.70;;;0.70;;
17925;SDS011;9088;55.674;13.354;2023-09-07T06:31:34;0.70;;;0.70;;
17925;SDS011;9088;55.674;13.354;2023-09-07T06:34:03;0.70;;;0.70;;
17925;SDS011;9088;55.674;13.354;2023-09-07T06:36:30;0.63;;;0.63;;
17925;SDS011;9088;55.674;13.354;2023-09-07T06:38:57;0.70;;;0.70;;
17925;SDS011;9088;55.674;13.354;2023-09-07T06:41:24;0.60;;;0.60;;
17925;SDS011;9088;55.674;13.354;2023-09-07T06:43:51;0.60;;;0.60;;
17925;SDS011;9088;55.674;13.354;2023-09-07T06:46:18;0.70;;;0.70;;
17925;SDS011;9088;55.674;13.354;2023-09-07T06:48:45;0.70;;;0.70;;
17925;SDS011;9088;55.674;13.354;2023-09-07T06:51:14;0.60;;;0.60;;
17925;SDS011;9088;55.674;13.354;2023-09-07T06:53:41;0.60;;;0.60;;
17925;SDS011;9088;55.674;13.354;2023-09-07T06:56:08;0.70;;;0.70;;
17925;SDS011;9088;55.674;13.354;2023-09-07T06:58:36;0.60;;;0.60;;
17925;SDS011;9088;55.674;13.354;2023-09-07T07:01:03;0.60;;;0.60;;
17925;SDS011;9088;55.674;13.354;2023-09-07T07:03:31;0.50;;;0.50;;
17925;SDS011;9088;55.674;13.354;2023-09-07T07:05:59;0.60;;;0.60;;
17925;SDS011;9088;55.674;13.354;2023-09-07T07:08:28;0.60;;;0.60;;
17925;SDS011;9088;55.674;13.354;2023-09-07T07:10:55;0.60;;;0.60;;
17925;SDS011;9088;55.674;13.354;2023-09-07T07:13:22;0.60;;;0.60;;
17925;SDS011;9088;55.674;13.354;2023-09-07T07:15:49;0.70;;;0.70;;
17925;SDS011;9088;55.674;13.354;2023-09-07T07:18:16;0.70;;;0.70;;
17925;SDS011;9088;55.674;13.354;2023-09-07T07:20:44;0.60;;;0.60;;
17925;SDS011;9088;55.674;13.354;2023-09-07T07:23:11;0.60;;;0.60;;
17925;SDS011;9088;55.674;13.354;2023-09-07T07:25:39;0.50;;;0.50;;
17925;SDS011;9088;55.674;13.354;2023-09-07T07:28:06;0.50;;;0.50;;
17925;SDS011;9088;55.674;13.354;2023-09-07T07:30:35;0.50;;;0.50;;
17925;SDS011;9088;55.674;13.354;2023-09-07T07:33:03;0.50;;;0.50;;
17925;SDS011;9088;55.674;13.354;2023-09-07T07:35:30;0.50;;;0.50;;
17925;SDS011;9088;55.674;13.354;2023-09-07T07:37:57;0.50;;;0.50;;
17925;SDS011;9088;55.674;13.354;2023-09-07T07:40:24;0.50;;;0.50;;
17925;SDS011;9088;55.674;13.354;2023-09-07T07:42:53;0.50;;;0.50;;
17925;SDS011;9088;55.674;13.354;2023-09-07T07:45:20;0.50;;;0.50;;
17925;SDS011;9088;55.674;13.354;2023-09-07T07:47:47;0.50;;;0.50;;
17925;SDS011;9088;55.674;13.354;2023-09-07T07:50:15;0.40;;;0.40;;
17925;SDS011;9088;55.674;13.354;2023-09-07T07:52:42;0.50;;;0.50;;
17925;SDS011;9088;55.674;13.354;2023-09-07T07:55:09;0.47;;;0.47;;
17925;SDS011;9088;55.674;13.354;2023-09-07T07:57:36;0.50;;;0.50;;
17925;SDS011;9088;55.674;13.354;2023-09-07T08:00:05;0.40;;;0.40;;
17925;SDS011;9088;55.674;13.354;2023-09-07T08:02:32;0.50;;;0.50;;
17925;SDS011;9088;55.674;13.354;2023-09-07T08:04:59;0.50;;;0.50;;
17925;SDS011;9088;55.674;13.354;2023-09-07T08:07:26;0.50;;;0.50;;
17925;SDS011;9088;55.674;13.354;2023-09-07T08:09:54;0.60;;;0.60;;
17925;SDS011;9088;55.674;13.354;2023-09-07T08:12:21;0.50;;;0.50;;
17925;SDS011;9088;55.674;13.354;2023-09-07T08:14:48;0.60;;;0.60;;
17925;SDS011;9088;55.674;13.354;2023-09-07T08:17:16;0.60;;;0.60;;
17925;SDS011;9088;55.674;13.354;2023-09-07T08:19:45;0.60;;;0.60;;
17925;SDS011;9088;55.674;13.354;2023-09-07T08:22:13;0.70;;;0.70;;
17925;SDS011;9088;55.674;13.354;2023-09-07T08:24:41;0.60;;;0.60;;
17925;SDS011;9088;55.674;13.354;2023-09-07T08:27:09;0.70;;;0.70;;
17925;SDS011;9088;55.674;13.354;2023-09-07T08:29:43;0.50;;;0.50;;
17925;SDS011;9088;55.674;13.354;2023-09-07T08:32:12;0.60;;;0.60;;
17925;SDS011;9088;55.674;13.354;2023-09-07T08:34:41;0.60;;;0.60;;
17925;SDS011;9088;55.674;13.354;2023-09-07T08:37:08;0.70;;;0.70;;
17925;SDS011;9088;55.674;13.354;2023-09-07T08:39:35;0.70;;;0.70;;
17925;SDS011;9088;55.674;13.354;2023-09-07T08:42:04;0.70;;;0.70;;
17925;SDS011;9088;55.674;13.354;2023-09-07T08:44:32;0.77;;;0.77;;
17925;SDS011;9088;55.674;13.354;2023-09-07T08:47:01;0.70;;;0.70;;
17925;SDS011;9088;55.674;13.354;2023-09-07T08:49:29;0.60;;;0.60;;
17925;SDS011;9088;55.674;13.354;2023-09-07T08:51:59;0.50;;;0.50;;
17925;SDS011;9088;55.674;13.354;2023-09-07T08:54:26;0.60;;;0.60;;
17925;SDS011;9088;55.674;13.354;2023-09-07T08:56:54;0.70;;;0.70;;
17925;SDS011;9088;55.674;13.354;2023-09-07T08:59:22;0.70;;;0.70;;
17925;SDS011;9088;55.674;13.354;2023-09-07T09:01:50;0.60;;;0.60;;
17925;SDS011;9088;55.674;13.354;2023-09-07T09:04:16;0.60;;;0.60;;
17925;SDS011;9088;55.674;13.354;2023-09-07T09:06:46;0.70;;;0.70;;
17925;SDS011;9088;55.674;13.354;2023-09-07T09:09:21;0.60;;;0.60;;
17925;SDS011;9088;55.674;13.354;2023-09-07T09:11:49;0.70;;;0.70;;
17925;SDS011;9088;55.674;13.354;2023-09-07T09:14:16;0.77;;;0.77;;
17925;SDS011;9088;55.674;13.354;2023-09-07T09:16:47;1.50;;;1.50;;
17925;SDS011;9088;55.674;13.354;2023-09-07T09:19:15;0.80;;;0.80;;
17925;SDS011;9088;55.674;13.354;2023-09-07T09:21:43;0.70;;;0.70;;
17925;SDS011;9088;55.674;13.354;2023-09-07T09:24:11;1.50;;;1.50;;
17925;SDS011;9088;55.674;13.354;2023-09-07T09:26:40;1.53;;;1.53;;
17925;SDS011;9088;55.674;13.354;2023-09-07T09:29:08;1.50;;;1.50;;
17925;SDS011;9088;55.674;13.354;2023-09-07T09:31:36;1.40;;;1.40;;
17925;SDS011;9088;55.674;13.354;2023-09-07T09:34:03;1.37;;;1.37;;
17925;SDS011;9088;55.674;13.354;2023-09-07T09:36:35;1.50;;;1.50;;
17925;SDS011;9088;55.674;13.354;2023-09-07T09:39:05;1.47;;;1.47;;
17925;SDS011;9088;55.674;13.354;2023-09-07T09:41:32;1.53;;;1.53;;
17925;SDS011;9088;55.674;13.354;2023-09-07T09:44:01;1.50;;;1.50;;
17925;SDS011;9088;55.674;13.354;2023-09-07T09:46:29;1.50;;;1.50;;
17925;SDS011;9088;55.674;13.354;2023-09-07T09:48:58;1.50;;;1.50;;
17925;SDS011;9088;55.674;13.354;2023-09-07T09:51:25;1.37;;;1.37;;
17925;SDS011;9088;55.674;13.354;2023-09-07T09:53:54;1.60;;;1.60;;
17925;SDS011;9088;55.674;13.354;2023-09-07T09:56:22;1.37;;;1.37;;
17925;SDS011;9088;55.674;13.354;2023-09-07T09:58:51;1.50;;;1.50;;
17925;SDS011;9088;55.674;13.354;2023-09-07T10:01:20;1.50;;;1.50;;
17925;SDS011;9088;55.674;13.354;2023-09-07T10:03:48;1.33;;;1.33;;
17925;SDS011;9088;55.674;13.354;2023-09-07T10:06:19;1.20;;;1.20;;
17925;SDS011;9088;55.674;13.354;2023-09-07T10:08:53;1.33;;;1.33;;
17925;SDS011;9088;55.674;13.354;2023-09-07T10:11:26;1.20;;;1.20;;
17925;SDS011;9088;55.674;13.354;2023-09-07T10:13:56;1.50;;;1.50;;
17925;SDS011;9088;55.674;13.354;2023-09-07T10:16:25;1.40;;;1.40;;
17925;SDS011;9088;55.674;13.354;2023-09-07T10:18:52;1.33;;;1.33;;
17925;SDS011;9088;55.674;13.354;2023-09-07T10:21:19;1.20;;;1.20;;
17925;SDS011;9088;55.674;13.354;2023-09-07T10:23:47;1.20;;;1.20;;
17925;SDS011;9088;55.674;13.354;2023-09-07T10:26:18;1.43;;;1.43;;
17925;SDS011;9088;55.674;13.354;2023-09-07T10:28:47;1.40;;;1.40;;
17925;SDS011;9088;55.674;13.354;2023-09-07T10:31:16;1.40;;;1.40;;
17925;SDS011;9088;55.674;13.354;2023-09-07T10:33:44;1.30;;;1.30;;
17925;SDS011;9088;55.674;13.354;2023-09-07T10:36:23;1.30;;;1.30;;
17925;SDS011;9088;55.674;13.354;2023-09-07T10:38:50;1.20;;;1.20;;
17925;SDS011;9088;55.674;13.354;2023-09-07T10:41:18;1.10;;;1.10;;
17925;SDS011;9088;55.674;13.354;2023-09-07T10:43:47;1.23;;;1.23;;
17925;SDS011;9088;55.674;13.354;2023-09-07T10:46:14;1.10;;;1.10;;
17925;SDS011;9088;55.674;13.354;2023-09-07T10:48:41;1.20;;;1.20;;
17925;SDS011;9088;55.674;13.354;2023-09-07T10:51:10;1.13;;;1.13;;
17925;SDS011;9088;55.674;13.354;2023-09-07T10:53:37;1.10;;;1.10;;
17925;SDS011;9088;55.674;13.354;2023-09-07T10:56:04;1.10;;;1.10;;
17925;SDS011;9088;55.674;13.354;2023-09-07T10:58:33;1.10;;;1.10;;
17925;SDS011;9088;55.674;13.354;2023-09-07T11:01:00;0.90;;;0.90;;
17925;SDS011;9088;55.674;13.354;2023-09-07T11:03:28;1.10;;;1.10;;
17925;SDS011;9088;55.674;13.354;2023-09-07T11:05:55;1.00;;;1.00;;
17925;SDS011;9088;55.674;13.354;2023-09-07T11:08:25;1.20;;;1.20;;
17925;SDS011;9088;55.674;13.354;2023-09-07T11:10:52;0.90;;;0.90;;
17925;SDS011;9088;55.674;13.354;2023-09-07T11:13:19;1.13;;;1.13;;
17925;SDS011;9088;55.674;13.354;2023-09-07T11:15:46;1.02;;;1.02;;
17925;SDS011;9088;55.674;13.354;2023-09-07T11:18:13;1.10;;;1.10;;
17925;SDS011;9088;55.674;13.354;2023-09-07T11:20:41;1.20;;;1.20;;
17925;SDS011;9088;55.674;13.354;2023-09-07T11:23:08;1.10;;;1.10;;
17925;SDS011;9088;55.674;13.354;2023-09-07T11:25:37;1.08;;;1.08;;
17925;SDS011;9088;55.674;13.354;2023-09-07T11:28:05;0.90;;;0.90;;
17925;SDS011;9088;55.674;13.354;2023-09-07T11:30:32;1.30;;;1.30;;
17925;SDS011;9088;55.674;13.354;2023-09-07T11:33:00;0.93;;;0.93;;
17925;SDS011;9088;55.674;13.354;2023-09-07T11:35:27;1.10;;;1.10;;
17925;SDS011;9088;55.674;13.354;2023-09-07T11:37:54;1.30;;;1.30;;
17925;SDS011;9088;55.674;13.354;2023-09-07T11:40:21;1.15;;;1.15;;
17925;SDS011;9088;55.674;13.354;2023-09-07T11:42:49;1.20;;;1.20;;
17925;SDS011;9088;55.674;13.354;2023-09-07T11:45:17;1.30;;;1.30;;
17925;SDS011;9088;55.674;13.354;2023-09-07T11:47:44;1.25;;;1.25;;
17925;SDS011;9088;55.674;13.354;2023-09-07T11:50:12;1.20;;;1.20;;
17925;SDS011;9088;55.674;13.354;2023-09-07T11:52:39;1.40;;;1.40;;
17925;SDS011;9088;55.674;13.354;2023-09-07T11:55:06;1.38;;;1.38;;
17925;SDS011;9088;55.674;13.354;2023-09-07T11:57:35;1.50;;;1.50;;
17925;SDS011;9088;55.674;13.354;2023-09-07T12:00:04;1.60;;;1.60;;
17925;SDS011;9088;55.674;13.354;2023-09-07T12:02:35;1.90;;;1.90;;
17925;SDS011;9088;55.674;13.354;2023-09-07T12:05:02;1.98;;;1.95;;
17925;SDS011;9088;55.674;13.354;2023-09-07T12:07:29;1.90;;;1.90;;
17925;SDS011;9088;55.674;13.354;2023-09-07T12:09:56;1.83;;;1.83;;
17925;SDS011;9088;55.674;13.354;2023-09-07T12:12:23;1.85;;;1.85;;
17925;SDS011;9088;55.674;13.354;2023-09-07T12:14:50;2.30;;;2.20;;
17925;SDS011;9088;55.674;13.354;2023-09-07T12:17:18;2.20;;;2.10;;
17925;SDS011;9088;55.674;13.354;2023-09-07T12:19:45;2.65;;;2.55;;
17925;SDS011;9088;55.674;13.354;2023-09-07T12:22:12;2.80;;;2.70;;
17925;SDS011;9088;55.674;13.354;2023-09-07T12:24:39;2.97;;;2.88;;
17925;SDS011;9088;55.674;13.354;2023-09-07T12:27:06;2.78;;;2.67;;
17925;SDS011;9088;55.674;13.354;2023-09-07T12:29:33;2.33;;;2.22;;
17925;SDS011;9088;55.674;13.354;2023-09-07T12:32:00;2.63;;;2.53;;
17925;SDS011;9088;55.674;13.354;2023-09-07T12:34:29;2.55;;;2.45;;
17925;SDS011;9088;55.674;13.354;2023-09-07T12:36:56;3.17;;;3.07;;
17925;SDS011;9088;55.674;13.354;2023-09-07T12:39:23;2.38;;;2.28;;
17925;SDS011;9088;55.674;13.354;2023-09-07T12:41:50;2.50;;;2.40;;
17925;SDS011;9088;55.674;13.354;2023-09-07T12:44:17;2.85;;;2.75;;
17925;SDS011;9088;55.674;13.354;2023-09-07T12:46:46;2.50;;;2.40;;
17925;SDS011;9088;55.674;13.354;2023-09-07T12:49:13;2.85;;;2.75;;
17925;SDS011;9088;55.674;13.354;2023-09-07T12:51:41;3.00;;;2.90;;
17925;SDS011;9088;55.674;13.354;2023-09-07T12:54:09;3.03;;;2.92;;
17925;SDS011;9088;55.674;13.354;2023-09-07T12:56:36;2.65;;;2.55;;
17925;SDS011;9088;55.674;13.354;2023-09-07T12:59:06;2.45;;;2.35;;
17925;SDS011;9088;55.674;13.354;2023-09-07T13:01:33;2.88;;;2.78;;
17925;SDS011;9088;55.674;13.354;2023-09-07T13:04:00;2.88;;;2.78;;
17925;SDS011;9088;55.674;13.354;2023-09-07T13:06:27;3.13;;;3.03;;
17925;SDS011;9088;55.674;13.354;2023-09-07T13:08:56;3.28;;;3.17;;
17925;SDS011;9088;55.674;13.354;2023-09-07T13:11:23;3.60;;;3.50;;
17925;SDS011;9088;55.674;13.354;2023-09-07T13:13:50;3.15;;;3.05;;
17925;SDS011;9088;55.674;13.354;2023-09-07T13:16:17;3.80;;;3.70;;
17925;SDS011;9088;55.674;13.354;2023-09-07T13:18:44;3.70;;;3.60;;
17925;SDS011;9088;55.674;13.354;2023-09-07T13:21:11;3.67;;;3.58;;
17925;SDS011;9088;55.674;13.354;2023-09-07T13:23:38;3.83;;;3.72;;
17925;SDS011;9088;55.674;13.354;2023-09-07T13:26:07;3.85;;;3.75;;
17925;SDS011;9088;55.674;13.354;2023-09-07T13:28:34;3.90;;;3.80;;
17925;SDS011;9088;55.674;13.354;2023-09-07T13:31:01;4.00;;;3.90;;
17925;SDS011;9088;55.674;13.354;2023-09-07T13:33:29;3.75;;;3.65;;
17925;SDS011;9088;55.674;13.354;2023-09-07T13:35:56;3.60;;;3.50;;
17925;SDS011;9088;55.674;13.354;2023-09-07T13:38:23;3.30;;;3.20;;
17925;SDS011;9088;55.674;13.354;2023-09-07T13:40:50;3.00;;;2.90;;
17925;SDS011;9088;55.674;13.354;2023-09-07T13:43:18;3.10;;;3.00;;
17925;SDS011;9088;55.674;13.354;2023-09-07T13:45:45;3.03;;;2.92;;
17925;SDS011;9088;55.674;13.354;2023-09-07T13:48:12;3.20;;;3.10;;
17925;SDS011;9088;55.674;13.354;2023-09-07T13:50:39;2.67;;;2.58;;
17925;SDS011;9088;55.674;13.354;2023-09-07T13:53:08;3.60;;;3.50;;
17925;SDS011;9088;55.674;13.354;2023-09-07T13:55:35;3.40;;;3.30;;
17925;SDS011;9088;55.674;13.354;2023-09-07T13:58:04;3.58;;;3.47;;
17925;SDS011;9088;55.674;13.354;2023-09-07T14:00:33;3.03;;;2.92;;
17925;SDS011;9088;55.674;13.354;2023-09-07T14:03:00;3.10;;;3.00;;
17925;SDS011;9088;55.674;13.354;2023-09-07T14:05:28;3.17;;;3.08;;
17925;SDS011;9088;55.674;13.354;2023-09-07T14:07:55;3.45;;;3.35;;
17925;SDS011;9088;55.674;13.354;2023-09-07T14:10:22;3.33;;;3.22;;
17925;SDS011;9088;55.674;13.354;2023-09-07T14:12:50;3.40;;;3.30;;
17925;SDS011;9088;55.674;13.354;2023-09-07T14:15:17;3.47;;;3.37;;
17925;SDS011;9088;55.674;13.354;2023-09-07T14:17:45;3.38;;;3.28;;
17925;SDS011;9088;55.674;13.354;2023-09-07T14:20:12;2.65;;;2.55;;
17925;SDS011;9088;55.674;13.354;2023-09-07T14:22:40;3.53;;;3.42;;
17925;SDS011;9088;55.674;13.354;2023-09-07T14:25:07;2.35;;;2.25;;
17925;SDS011;9088;55.674;13.354;2023-09-07T14:27:34;2.30;;;2.20;;
17925;SDS011;9088;55.674;13.354;2023-09-07T14:30:01;2.20;;;2.10;;
17925;SDS011;9088;55.674;13.354;2023-09-07T14:32:28;2.22;;;2.13;;
17925;SDS011;9088;55.674;13.354;2023-09-07T14:34:57;2.10;;;2.00;;
17925;SDS011;9088;55.674;13.354;2023-09-07T14:37:24;1.85;;;1.85;;
17925;SDS011;9088;55.674;13.354;2023-09-07T14:39:51;1.60;;;1.60;;
17925;SDS011;9088;55.674;13.354;2023-09-07T14:42:22;1.58;;;1.58;;
17925;SDS011;9088;55.674;13.354;2023-09-07T14:44:49;1.70;;;1.70;;
17925;SDS011;9088;55.674;13.354;2023-09-07T14:47:16;1.80;;;1.80;;
17925;SDS011;9088;55.674;13.354;2023-09-07T14:49:49;2.50;;;2.40;;